Terminal Aerodrome Forecast
Issued by NWS Tulsa, OK

Home | Current Version | Previous Version | Text Only | Print | Product List | Glossary On
Versions: 1 2 3 4 5 6 7 8 9 10 11 12 13 14 15 16
262
FTUS44 KTSA 220524
TAFFSM
TAF
KFSM 220524Z 2206/2306 36006KT P6SM OVC008
      TEMPO 2208/2212 3SM BR
     FM221600 05007KT P6SM SCT008 BKN015
     FM222100 07005KT 3SM -RA OVC008
     FM230300 07005KT 3SM BR OVC005=

USA.gov is the U.S. government's official web portal to all federal, state and local government web resources and services.